createdAt,value
2019-02-27T00:00:37.003Z,1025.39
2019-02-27T00:01:36.974Z,1025.26
2019-02-27T00:02:36.968Z,1025.26
2019-02-27T00:03:36.952Z,1025.25
2019-02-27T00:04:36.943Z,1025.23
2019-02-27T00:05:38.858Z,1025.26
2019-02-27T00:06:36.934Z,1025.27
2019-02-27T00:07:36.920Z,1025.34
2019-02-27T00:08:36.908Z,1025.30
2019-02-27T00:09:36.896Z,1025.33
2019-02-27T00:10:39.272Z,1025.31
2019-02-27T00:11:36.879Z,1025.37
2019-02-27T00:12:36.862Z,1025.33
2019-02-27T00:13:36.840Z,1025.33
2019-02-27T00:14:36.833Z,1025.30
2019-02-27T00:15:37.969Z,1025.37
2019-02-27T00:16:36.804Z,1025.34
2019-02-27T00:17:36.818Z,1025.27
2019-02-27T00:18:36.782Z,1025.28
2019-02-27T00:19:36.776Z,1025.32
2019-02-27T00:20:37.172Z,1025.36
2019-02-27T00:21:36.751Z,1025.32
2019-02-27T00:22:36.752Z,1025.33
2019-02-27T00:23:36.760Z,1025.30
2019-02-27T00:24:36.721Z,1025.29
2019-02-27T00:25:36.765Z,1025.24
2019-02-27T00:26:36.721Z,1025.19
2019-02-27T00:27:36.687Z,1025.19
2019-02-27T00:28:36.670Z,1025.22
2019-02-27T00:29:36.654Z,1025.23
2019-02-27T00:30:38.117Z,1025.19
2019-02-27T00:31:36.645Z,1025.21
2019-02-27T00:32:36.715Z,1025.14
2019-02-27T00:33:36.619Z,1025.21
2019-02-27T00:34:36.619Z,1025.12
2019-02-27T00:35:38.651Z,1025.15
2019-02-27T00:36:36.628Z,1025.10
2019-02-27T00:37:36.634Z,1025.05
2019-02-27T00:38:36.614Z,1025.16
2019-02-27T00:39:36.639Z,1025.14
2019-02-27T00:40:39.377Z,1025.11
2019-02-27T00:41:36.529Z,1025.10
2019-02-27T00:42:36.562Z,1025.14
2019-02-27T00:43:36.515Z,1025.16
2019-02-27T00:44:36.495Z,1025.14
2019-02-27T00:45:39.677Z,1025.17
2019-02-27T00:46:36.468Z,1025.18
2019-02-27T00:47:36.520Z,1025.18
2019-02-27T00:48:36.477Z,1025.16
2019-02-27T00:49:36.457Z,1025.17
2019-02-27T00:50:38.938Z,1025.16
2019-02-27T00:51:36.425Z,1025.17
2019-02-27T00:52:36.402Z,1025.11
2019-02-27T00:53:36.394Z,1025.08
2019-02-27T00:54:36.388Z,1025.01
2019-02-27T00:55:39.378Z,1024.98
2019-02-27T00:56:36.370Z,1025.02
2019-02-27T00:57:36.358Z,1024.96
2019-02-27T00:58:36.347Z,1024.99
2019-02-27T00:59:36.399Z,1024.98
2019-02-27T01:00:38.987Z,1024.97
2019-02-27T01:01:36.310Z,1025.04
2019-02-27T01:02:36.314Z,1025.01
2019-02-27T01:03:36.274Z,1024.99
2019-02-27T01:04:36.266Z,1025.00
2019-02-27T01:05:36.265Z,1024.95
2019-02-27T01:06:36.254Z,1024.94
2019-02-27T01:07:36.253Z,1025.00
2019-02-27T01:08:36.241Z,1024.99
2019-02-27T01:09:37.218Z,1025.00
2019-02-27T01:10:36.295Z,1024.99
2019-02-27T01:11:36.199Z,1025.03
2019-02-27T01:12:36.194Z,1024.93
2019-02-27T01:13:36.184Z,1024.91
2019-02-27T01:14:37.164Z,1024.88
2019-02-27T01:15:36.143Z,1024.90
2019-02-27T01:16:36.135Z,1024.87
2019-02-27T01:17:36.139Z,1024.92
2019-02-27T01:18:36.121Z,1024.92
2019-02-27T01:19:39.188Z,1024.91
2019-02-27T01:20:36.094Z,1024.91
2019-02-27T01:21:36.101Z,1024.89
2019-02-27T01:22:36.069Z,1024.89
2019-02-27T01:23:36.087Z,1024.82
2019-02-27T01:24:36.075Z,1024.90
2019-02-27T01:25:36.079Z,1024.86
2019-02-27T01:26:36.053Z,1024.85
2019-02-27T01:27:38.101Z,1024.82
2019-02-27T01:28:36.019Z,1024.83
2019-02-27T01:29:36.001Z,1024.88
2019-02-27T01:30:35.993Z,1024.80
2019-02-27T01:31:35.967Z,1024.90
2019-02-27T01:32:35.951Z,1024.85
2019-02-27T01:33:38.234Z,1024.85
2019-02-27T01:34:35.942Z,1024.81
2019-02-27T01:35:35.953Z,1024.80
2019-02-27T01:36:36.139Z,1024.84
2019-02-27T01:37:35.901Z,1024.81
2019-02-27T01:38:38.015Z,1024.83
2019-02-27T01:39:35.917Z,1024.83
2019-02-27T01:40:35.868Z,1024.74
2019-02-27T01:41:35.859Z,1024.85
2019-02-27T01:42:35.840Z,1024.85
2019-02-27T01:43:36.899Z,1024.87
2019-02-27T01:44:35.822Z,1024.80
2019-02-27T01:45:35.816Z,1024.77
2019-02-27T01:46:35.808Z,1024.77
2019-02-27T01:47:36.526Z,1024.71
2019-02-27T01:48:35.808Z,1024.67
2019-02-27T01:49:35.771Z,1024.67
2019-02-27T01:50:35.758Z,1024.67
2019-02-27T01:51:35.848Z,1024.69
2019-02-27T01:52:35.747Z,1024.67
2019-02-27T01:53:37.900Z,1024.68
2019-02-27T01:54:35.709Z,1024.63
2019-02-27T01:55:35.696Z,1024.62
2019-02-27T01:56:35.690Z,1024.64
2019-02-27T01:57:36.818Z,1024.61
2019-02-27T01:58:35.692Z,1024.57
2019-02-27T01:59:35.654Z,1024.49
2019-02-27T02:00:35.634Z,1024.55
2019-02-27T02:01:35.642Z,1024.48
2019-02-27T02:02:37.579Z,1024.46
2019-02-27T02:03:35.628Z,1024.47
2019-02-27T02:04:35.608Z,1024.43
2019-02-27T02:05:35.584Z,1024.40
2019-02-27T02:06:35.586Z,1024.44
2019-02-27T02:07:39.868Z,1024.41
2019-02-27T02:08:35.554Z,1024.41
2019-02-27T02:09:35.557Z,1024.35
2019-02-27T02:10:35.534Z,1024.31
2019-02-27T02:11:35.643Z,1024.34
2019-02-27T02:12:35.509Z,1024.34
2019-02-27T02:13:35.501Z,1024.29
2019-02-27T02:14:35.487Z,1024.26
2019-02-27T02:15:35.501Z,1024.23
2019-02-27T02:16:35.460Z,1024.26
2019-02-27T02:17:38.229Z,1024.23
2019-02-27T02:18:36.442Z,1024.21
2019-02-27T02:19:35.435Z,1024.20
2019-02-27T02:20:35.437Z,1024.22
2019-02-27T02:21:35.488Z,1024.24
2019-02-27T02:22:35.395Z,1024.18
2019-02-27T02:23:35.463Z,1024.18
2019-02-27T02:24:35.384Z,1024.18
2019-02-27T02:25:35.389Z,1024.20
2019-02-27T02:26:35.650Z,1024.23
2019-02-27T02:27:35.364Z,1024.22
2019-02-27T02:28:35.379Z,1024.24
2019-02-27T02:29:35.313Z,1024.18
2019-02-27T02:30:35.340Z,1024.18
2019-02-27T02:31:40.778Z,1024.21
2019-02-27T02:32:36.301Z,1024.21
2019-02-27T02:33:35.319Z,1024.16
2019-02-27T02:34:39.786Z,1024.17
2019-02-27T02:35:36.263Z,1024.18
2019-02-27T02:36:35.256Z,1024.11
2019-02-27T02:37:38.006Z,1024.06
2019-02-27T02:38:35.260Z,1024.07
2019-02-27T02:39:35.222Z,1024.00
2019-02-27T02:40:35.203Z,1024.01
2019-02-27T02:41:35.190Z,1024.04
2019-02-27T02:42:35.184Z,1024.01
2019-02-27T02:43:40.155Z,1023.97
2019-02-27T02:44:36.234Z,1023.96
2019-02-27T02:45:35.146Z,1023.99
2019-02-27T02:46:35.134Z,1023.90
2019-02-27T02:47:35.133Z,1023.97
2019-02-27T02:48:35.125Z,1023.93
2019-02-27T02:49:35.167Z,1023.92
2019-02-27T02:50:35.109Z,1023.95
2019-02-27T02:51:35.090Z,1023.94
2019-02-27T02:52:40.220Z,1023.90
2019-02-27T02:53:36.070Z,1023.91
2019-02-27T02:54:37.538Z,1023.94
2019-02-27T02:55:35.037Z,1023.94
2019-02-27T02:56:35.048Z,1024.00
2019-02-27T02:57:36.262Z,1023.99
2019-02-27T02:58:34.999Z,1023.94
2019-02-27T02:59:34.989Z,1023.95
2019-02-27T03:00:39.079Z,1023.97
2019-02-27T03:01:35.021Z,1023.95
2019-02-27T03:02:34.956Z,1023.91
2019-02-27T03:03:37.256Z,1023.91
2019-02-27T03:04:34.960Z,1023.95
2019-02-27T03:05:34.933Z,1023.95
2019-02-27T03:06:35.965Z,1023.94
2019-02-27T03:07:34.900Z,1023.86
2019-02-27T03:08:34.890Z,1023.88
2019-02-27T03:09:34.875Z,1023.90
2019-02-27T03:10:34.866Z,1023.91
2019-02-27T03:11:34.876Z,1023.90
2019-02-27T03:12:34.840Z,1023.89
2019-02-27T03:13:34.833Z,1023.93
2019-02-27T03:14:34.824Z,1023.88
2019-02-27T03:15:34.817Z,1023.94
2019-02-27T03:16:34.868Z,1023.88
2019-02-27T03:17:34.815Z,1024.01
2019-02-27T03:18:34.789Z,1023.92
2019-02-27T03:19:41.205Z,1023.90
2019-02-27T03:20:35.764Z,1023.85
2019-02-27T03:21:34.808Z,1023.87
2019-02-27T03:22:40.480Z,1023.86
2019-02-27T03:23:35.726Z,1023.91
2019-02-27T03:24:34.718Z,1023.88
2019-02-27T03:25:40.235Z,1023.87
2019-02-27T03:26:35.695Z,1023.83
2019-02-27T03:27:34.682Z,1023.85
2019-02-27T03:28:40.612Z,1023.80
2019-02-27T03:29:35.656Z,1023.87
2019-02-27T03:30:36.688Z,1023.81
2019-02-27T03:31:34.630Z,1023.80
2019-02-27T03:32:40.890Z,1023.78
2019-02-27T03:33:35.629Z,1023.76
2019-02-27T03:34:34.613Z,1023.77
2019-02-27T03:35:34.620Z,1023.75
2019-02-27T03:36:36.112Z,1023.74
2019-02-27T03:37:34.561Z,1023.75
2019-02-27T03:38:34.559Z,1023.72
2019-02-27T03:39:35.779Z,1023.74
2019-02-27T03:40:34.566Z,1023.69
2019-02-27T03:41:34.530Z,1023.75
2019-02-27T03:42:35.213Z,1023.78
2019-02-27T03:43:34.520Z,1023.72
2019-02-27T03:44:34.485Z,1023.68
2019-02-27T03:45:34.486Z,1023.72
2019-02-27T03:46:37.969Z,1023.71
2019-02-27T03:47:35.465Z,1023.72
2019-02-27T03:48:34.468Z,1023.73
2019-02-27T03:49:39.726Z,1023.73
2019-02-27T03:50:35.420Z,1023.69
2019-02-27T03:51:34.416Z,1023.73
2019-02-27T03:52:36.469Z,1023.69
2019-02-27T03:53:34.441Z,1023.67
2019-02-27T03:54:34.373Z,1023.69
2019-02-27T03:55:34.362Z,1023.68
2019-02-27T03:56:34.387Z,1023.67
2019-02-27T03:57:34.379Z,1023.71
2019-02-27T03:58:34.325Z,1023.70
2019-02-27T03:59:34.319Z,1023.67
2019-02-27T04:00:34.318Z,1023.71
2019-02-27T04:01:34.316Z,1023.60
2019-02-27T04:02:34.297Z,1023.69
2019-02-27T04:03:34.269Z,1023.62
2019-02-27T04:04:34.267Z,1023.60
2019-02-27T04:05:34.256Z,1023.67
2019-02-27T04:06:34.249Z,1023.59
2019-02-27T04:07:34.234Z,1023.59
2019-02-27T04:08:34.244Z,1023.58
2019-02-27T04:09:34.215Z,1023.61
2019-02-27T04:10:34.197Z,1023.60
2019-02-27T04:11:34.184Z,1023.60
2019-02-27T04:12:34.171Z,1023.58
2019-02-27T04:13:34.170Z,1023.57
2019-02-27T04:14:40.108Z,1023.59
2019-02-27T04:15:35.153Z,1023.59
2019-02-27T04:16:34.131Z,1023.60
2019-02-27T04:17:34.117Z,1023.61
2019-02-27T04:18:34.108Z,1023.55
2019-02-27T04:19:38.695Z,1023.54
2019-02-27T04:20:35.088Z,1023.60
2019-02-27T04:21:34.067Z,1023.53
2019-02-27T04:22:37.551Z,1023.55
2019-02-27T04:23:34.074Z,1023.53
2019-02-27T04:24:34.056Z,1023.47
2019-02-27T04:25:34.063Z,1023.49
2019-02-27T04:26:34.064Z,1023.46
2019-02-27T04:27:34.003Z,1023.48
2019-02-27T04:28:33.998Z,1023.42
2019-02-27T04:29:34.016Z,1023.42
2019-02-27T04:30:33.988Z,1023.45
2019-02-27T04:31:33.962Z,1023.43
2019-02-27T04:32:34.007Z,1023.42
2019-02-27T04:33:33.937Z,1023.39
2019-02-27T04:34:33.935Z,1023.43
2019-02-27T04:35:34.397Z,1023.42
2019-02-27T04:36:33.913Z,1023.46
2019-02-27T04:37:33.899Z,1023.39
2019-02-27T04:38:33.879Z,1023.42
2019-02-27T04:39:35.826Z,1023.45
2019-02-27T04:40:33.863Z,1023.36
2019-02-27T04:41:33.865Z,1023.39
2019-02-27T04:42:33.841Z,1023.48
2019-02-27T04:43:33.827Z,1023.47
2019-02-27T04:44:35.908Z,1023.48
2019-02-27T04:45:34.818Z,1023.45
2019-02-27T04:46:33.805Z,1023.51
2019-02-27T04:47:33.797Z,1023.45
2019-02-27T04:48:33.779Z,1023.45
2019-02-27T04:49:34.775Z,1023.37
2019-02-27T04:50:33.754Z,1023.42
2019-02-27T04:51:33.817Z,1023.37
2019-02-27T04:52:33.730Z,1023.37
2019-02-27T04:53:33.745Z,1023.36
2019-02-27T04:54:35.087Z,1023.33
2019-02-27T04:55:33.689Z,1023.36
2019-02-27T04:56:33.684Z,1023.33
2019-02-27T04:57:34.293Z,1023.31
2019-02-27T04:58:33.662Z,1023.34
2019-02-27T04:59:33.644Z,1023.31
2019-02-27T05:00:33.633Z,1023.30
2019-02-27T05:01:36.250Z,1023.27
2019-02-27T05:02:33.611Z,1023.29
2019-02-27T05:03:33.604Z,1023.26
2019-02-27T05:04:35.290Z,1023.21
2019-02-27T05:05:33.585Z,1023.28
2019-02-27T05:06:33.568Z,1023.26
2019-02-27T05:07:33.560Z,1023.26
2019-02-27T05:08:33.552Z,1023.22
2019-02-27T05:09:34.021Z,1023.21
2019-02-27T05:10:33.894Z,1023.24
2019-02-27T05:11:33.510Z,1023.19
2019-02-27T05:12:33.501Z,1023.20
2019-02-27T05:13:34.577Z,1023.14
2019-02-27T05:14:33.484Z,1023.17
2019-02-27T05:15:33.492Z,1023.12
2019-02-27T05:16:33.460Z,1023.08
2019-02-27T05:17:33.450Z,1023.11
2019-02-27T05:18:33.445Z,1023.05
2019-02-27T05:19:36.908Z,1023.02
2019-02-27T05:20:33.432Z,1023.09
2019-02-27T05:21:33.413Z,1023.04
2019-02-27T05:22:33.487Z,1023.06
2019-02-27T05:23:34.140Z,1022.98
2019-02-27T05:24:33.375Z,1023.01
2019-02-27T05:25:33.359Z,1023.01
2019-02-27T05:26:33.364Z,1023.05
2019-02-27T05:27:33.357Z,1023.00
2019-02-27T05:28:34.983Z,1023.05
2019-02-27T05:29:35.195Z,1023.04
2019-02-27T05:30:33.314Z,1023.07
2019-02-27T05:31:33.298Z,1022.99
2019-02-27T05:32:33.296Z,1023.01
2019-02-27T05:33:36.494Z,1023.02
2019-02-27T05:34:34.261Z,1023.04
2019-02-27T05:35:33.242Z,1023.10
2019-02-27T05:36:33.244Z,1023.06
2019-02-27T05:37:33.234Z,1023.12
2019-02-27T05:38:33.227Z,1023.01
2019-02-27T05:39:33.854Z,1023.06
2019-02-27T05:40:33.288Z,1023.07
2019-02-27T05:41:33.789Z,1023.06
2019-02-27T05:42:33.190Z,1022.96
2019-02-27T05:43:33.169Z,1023.00
2019-02-27T05:44:33.162Z,1022.98
2019-02-27T05:45:33.134Z,1022.95
2019-02-27T05:46:33.128Z,1022.95
2019-02-27T05:47:33.137Z,1022.99
2019-02-27T05:48:33.112Z,1022.96
2019-02-27T05:49:33.104Z,1022.99
2019-02-27T05:50:34.257Z,1022.96
2019-02-27T05:51:33.076Z,1022.94
2019-02-27T05:52:33.072Z,1023.02
2019-02-27T05:53:33.051Z,1023.03
2019-02-27T05:54:33.039Z,1022.95
2019-02-27T05:55:33.043Z,1022.99
2019-02-27T05:56:33.024Z,1022.93
2019-02-27T05:57:33.035Z,1022.98
2019-02-27T05:58:32.994Z,1022.96
2019-02-27T05:59:32.983Z,1023.00
2019-02-27T06:00:32.982Z,1022.91
2019-02-27T06:01:33.067Z,1022.86
2019-02-27T06:02:32.969Z,1022.92
2019-02-27T06:03:32.937Z,1022.92
2019-02-27T06:04:34.425Z,1022.88
2019-02-27T06:05:33.618Z,1022.90
2019-02-27T06:06:32.941Z,1022.92
2019-02-27T06:07:32.912Z,1022.96
2019-02-27T06:08:36.795Z,1022.93
2019-02-27T06:09:33.877Z,1022.96
2019-02-27T06:10:32.862Z,1022.96
2019-02-27T06:11:33.181Z,1022.90
2019-02-27T06:12:32.933Z,1022.93
2019-02-27T06:13:32.839Z,1022.93
2019-02-27T06:14:32.817Z,1022.91
2019-02-27T06:15:32.810Z,1022.92
2019-02-27T06:16:37.083Z,1022.93
2019-02-27T06:17:43.084Z,1022.94
2019-02-27T06:18:33.772Z,1022.86
2019-02-27T06:19:33.720Z,1022.89
2019-02-27T06:20:32.760Z,1022.90
2019-02-27T06:21:32.753Z,1022.89
2019-02-27T06:22:32.729Z,1022.89
2019-02-27T06:23:35.332Z,1022.93
2019-02-27T06:24:33.707Z,1022.97
2019-02-27T06:25:32.713Z,1022.94
2019-02-27T06:26:32.996Z,1022.92
2019-02-27T06:27:32.675Z,1022.89
2019-02-27T06:28:32.670Z,1022.90
2019-02-27T06:29:32.673Z,1022.86
2019-02-27T06:30:32.652Z,1022.89
2019-02-27T06:31:36.795Z,1022.89
2019-02-27T06:32:33.628Z,1022.91
2019-02-27T06:33:32.616Z,1022.83
2019-02-27T06:34:32.610Z,1022.82
2019-02-27T06:35:34.237Z,1022.85
2019-02-27T06:36:32.598Z,1022.86
2019-02-27T06:37:32.567Z,1022.78
2019-02-27T06:38:32.560Z,1022.75
2019-02-27T06:39:34.442Z,1022.75
2019-02-27T06:40:32.540Z,1022.83
2019-02-27T06:41:32.528Z,1022.74
2019-02-27T06:42:32.586Z,1022.76
2019-02-27T06:43:32.500Z,1022.84
2019-02-27T06:44:32.491Z,1022.75
2019-02-27T06:45:32.504Z,1022.77
2019-02-27T06:46:32.470Z,1022.77
2019-02-27T06:47:32.989Z,1022.75
2019-02-27T06:48:32.445Z,1022.67
2019-02-27T06:49:32.434Z,1022.69
2019-02-27T06:50:32.425Z,1022.69
2019-02-27T06:51:33.365Z,1022.72
2019-02-27T06:52:32.395Z,1022.70
2019-02-27T06:53:32.410Z,1022.72
2019-02-27T06:54:32.382Z,1022.76
2019-02-27T06:55:33.811Z,1022.71
2019-02-27T06:56:32.355Z,1022.67
2019-02-27T06:57:32.358Z,1022.69
2019-02-27T06:58:32.343Z,1022.73
2019-02-27T06:59:32.330Z,1022.72
2019-02-27T07:00:35.808Z,1022.73
2019-02-27T07:01:32.363Z,1022.64
2019-02-27T07:02:32.297Z,1022.69
2019-02-27T07:03:32.952Z,1022.74
2019-02-27T07:04:32.267Z,1022.65
2019-02-27T07:05:32.262Z,1022.69
2019-02-27T07:06:32.259Z,1022.66
2019-02-27T07:07:32.242Z,1022.69
2019-02-27T07:08:32.240Z,1022.65
2019-02-27T07:09:32.229Z,1022.70
2019-02-27T07:10:32.212Z,1022.68
2019-02-27T07:11:32.199Z,1022.66
2019-02-27T07:12:32.188Z,1022.68
2019-02-27T07:13:32.182Z,1022.67
2019-02-27T07:14:32.173Z,1022.69
2019-02-27T07:15:32.166Z,1022.68
2019-02-27T07:16:32.142Z,1022.74
2019-02-27T07:17:32.487Z,1022.70
2019-02-27T07:18:32.124Z,1022.69
2019-02-27T07:19:32.107Z,1022.67
2019-02-27T07:20:32.108Z,1022.68
2019-02-27T07:21:32.816Z,1022.71
2019-02-27T07:22:32.082Z,1022.70
2019-02-27T07:23:32.065Z,1022.67
2019-02-27T07:24:33.602Z,1022.63
2019-02-27T07:25:32.042Z,1022.58
2019-02-27T07:26:32.036Z,1022.58
2019-02-27T07:27:32.014Z,1022.58
2019-02-27T07:28:32.024Z,1022.54
2019-02-27T07:29:32.002Z,1022.54
2019-02-27T07:30:31.986Z,1022.59
2019-02-27T07:31:31.986Z,1022.58
2019-02-27T07:32:32.163Z,1022.55
2019-02-27T07:33:31.953Z,1022.56
2019-02-27T07:34:31.950Z,1022.55
2019-02-27T07:35:31.933Z,1022.57
2019-02-27T07:36:31.921Z,1022.59
2019-02-27T07:37:31.912Z,1022.56
2019-02-27T07:38:31.905Z,1022.53
2019-02-27T07:39:32.769Z,1022.63
2019-02-27T07:40:31.876Z,1022.51
2019-02-27T07:41:31.872Z,1022.43
2019-02-27T07:42:32.605Z,1022.51
2019-02-27T07:43:31.835Z,1022.41
2019-02-27T07:44:32.218Z,1022.47
2019-02-27T07:45:31.817Z,1022.46
2019-02-27T07:46:31.800Z,1022.48
2019-02-27T07:47:31.797Z,1022.39
2019-02-27T07:48:31.796Z,1022.44
2019-02-27T07:49:31.849Z,1022.41
2019-02-27T07:50:32.569Z,1022.40
2019-02-27T07:51:31.747Z,1022.46
2019-02-27T07:52:32.496Z,1022.43
2019-02-27T07:53:31.731Z,1022.39
2019-02-27T07:54:31.724Z,1022.43
2019-02-27T07:55:31.707Z,1022.40
2019-02-27T07:56:31.694Z,1022.40
2019-02-27T07:57:31.693Z,1022.39
2019-02-27T07:58:33.802Z,1022.35
2019-02-27T07:59:31.668Z,1022.37
2019-02-27T08:00:31.675Z,1022.31
2019-02-27T08:01:31.669Z,1022.26
2019-02-27T08:02:33.757Z,1022.29
2019-02-27T08:03:31.626Z,1022.38
2019-02-27T08:04:31.603Z,1022.34
2019-02-27T08:05:31.604Z,1022.33
2019-02-27T08:06:31.580Z,1022.31
2019-02-27T08:07:31.616Z,1022.35
2019-02-27T08:08:31.556Z,1022.27
2019-02-27T08:09:31.558Z,1022.34
2019-02-27T08:10:31.544Z,1022.32
2019-02-27T08:11:31.547Z,1022.30
2019-02-27T08:12:31.520Z,1022.28
2019-02-27T08:13:31.502Z,1022.30
2019-02-27T08:14:31.505Z,1022.26
2019-02-27T08:15:31.498Z,1022.27
2019-02-27T08:16:31.489Z,1022.29
2019-02-27T08:17:31.461Z,1022.28
2019-02-27T08:18:36.618Z,1022.27
2019-02-27T08:19:32.441Z,1022.24
2019-02-27T08:20:31.422Z,1022.27
2019-02-27T08:21:31.421Z,1022.20
2019-02-27T08:22:31.408Z,1022.23
2019-02-27T08:23:32.700Z,1022.22
2019-02-27T08:24:31.378Z,1022.27
2019-02-27T08:25:31.392Z,1022.14
2019-02-27T08:26:31.354Z,1022.14
2019-02-27T08:27:31.350Z,1022.11
2019-02-27T08:28:31.382Z,1022.09
2019-02-27T08:29:31.320Z,1022.15
2019-02-27T08:30:31.313Z,1022.13
2019-02-27T08:31:32.123Z,1022.11
2019-02-27T08:32:31.963Z,1022.08
2019-02-27T08:33:31.295Z,1022.14
2019-02-27T08:34:31.264Z,1022.04
2019-02-27T08:35:31.255Z,1022.05
2019-02-27T08:36:31.252Z,1022.07
2019-02-27T08:37:31.261Z,1022.03
2019-02-27T08:38:31.246Z,1022.12
2019-02-27T08:39:31.253Z,1022.10
2019-02-27T08:40:31.208Z,1022.11
2019-02-27T08:41:31.628Z,1022.12
2019-02-27T08:42:31.191Z,1022.16
2019-02-27T08:43:31.171Z,1022.05
2019-02-27T08:44:31.166Z,1022.10
2019-02-27T08:45:31.146Z,1022.05
2019-02-27T08:46:31.141Z,1022.02
2019-02-27T08:47:31.144Z,1022.05
2019-02-27T08:48:31.134Z,1021.98
2019-02-27T08:49:31.865Z,1022.01
2019-02-27T08:50:31.762Z,1022.00
2019-02-27T08:51:31.074Z,1021.96
2019-02-27T08:52:31.072Z,1022.05
2019-02-27T08:53:31.164Z,1022.00
2019-02-27T08:54:33.008Z,1021.96
2019-02-27T08:55:31.043Z,1021.93
2019-02-27T08:56:31.079Z,1021.94
2019-02-27T08:57:31.047Z,1021.86
2019-02-27T08:58:32.982Z,1021.94
2019-02-27T08:59:31.084Z,1021.89
2019-02-27T09:00:31.049Z,1021.84
2019-02-27T09:01:30.985Z,1021.81
2019-02-27T09:02:30.992Z,1021.83
2019-02-27T09:03:30.945Z,1021.81
2019-02-27T09:04:30.963Z,1021.86
2019-02-27T09:05:30.969Z,1021.78
2019-02-27T09:06:30.951Z,1021.78
2019-02-27T09:07:30.935Z,1021.76
2019-02-27T09:08:31.413Z,1021.71
2019-02-27T09:09:30.893Z,1021.81
2019-02-27T09:10:31.038Z,1021.72
2019-02-27T09:11:30.858Z,1021.75
2019-02-27T09:12:30.950Z,1021.74
2019-02-27T09:13:30.873Z,1021.72
2019-02-27T09:14:30.836Z,1021.71
2019-02-27T09:15:30.851Z,1021.70
2019-02-27T09:16:30.847Z,1021.65
2019-02-27T09:17:30.796Z,1021.64
2019-02-27T09:18:33.412Z,1021.69
2019-02-27T09:19:31.764Z,1021.62
2019-02-27T09:20:30.757Z,1021.62
2019-02-27T09:21:30.760Z,1021.63
2019-02-27T09:22:30.743Z,1021.56
2019-02-27T09:23:30.752Z,1021.56
2019-02-27T09:24:30.749Z,1021.54
2019-02-27T09:25:30.753Z,1021.52
2019-02-27T09:26:30.692Z,1021.57
2019-02-27T09:27:32.965Z,1021.49
2019-02-27T09:28:30.676Z,1021.50
2019-02-27T09:29:30.674Z,1021.56
2019-02-27T09:30:30.652Z,1021.56
2019-02-27T09:31:30.702Z,1021.55
2019-02-27T09:32:30.626Z,1021.55
2019-02-27T09:33:38.551Z,1021.51
2019-02-27T09:34:31.691Z,1021.48
2019-02-27T09:35:34.512Z,1021.53
2019-02-27T09:36:31.574Z,1021.47
2019-02-27T09:37:30.585Z,1021.42
2019-02-27T09:38:30.559Z,1021.41
2019-02-27T09:39:31.171Z,1021.44
2019-02-27T09:40:30.550Z,1021.40
2019-02-27T09:41:30.524Z,1021.36
2019-02-27T09:42:30.518Z,1021.36
2019-02-27T09:43:32.215Z,1021.40
2019-02-27T09:44:30.492Z,1021.37
2019-02-27T09:45:30.498Z,1021.32
2019-02-27T09:46:30.480Z,1021.33
2019-02-27T09:47:30.607Z,1021.35
2019-02-27T09:48:31.159Z,1021.29
2019-02-27T09:49:30.439Z,1021.34
2019-02-27T09:50:30.418Z,1021.31
2019-02-27T09:51:30.416Z,1021.28
2019-02-27T09:52:30.722Z,1021.25
2019-02-27T09:53:30.390Z,1021.21
2019-02-27T09:54:30.369Z,1021.20
2019-02-27T09:55:30.365Z,1021.21
2019-02-27T09:56:30.361Z,1021.18
2019-02-27T09:57:32.910Z,1021.20
2019-02-27T09:58:30.325Z,1021.24
2019-02-27T09:59:30.325Z,1021.18
2019-02-27T10:00:39.640Z,1021.14
2019-02-27T10:02:12.940Z,1021.16
2019-02-27T10:03:12.456Z,1021.08
2019-02-27T10:04:12.444Z,1021.09
2019-02-27T10:05:12.522Z,1021.14
2019-02-27T10:06:12.421Z,1021.12
2019-02-27T10:07:14.629Z,1021.13
2019-02-27T10:08:12.398Z,1021.14
2019-02-27T10:09:12.370Z,1021.12
2019-02-27T10:10:12.371Z,1021.15
2019-02-27T10:11:12.355Z,1021.05
2019-02-27T10:12:12.355Z,1021.06
2019-02-27T10:13:12.347Z,1020.99
2019-02-27T10:14:14.174Z,1021.04
2019-02-27T10:15:12.307Z,1021.03
2019-02-27T10:16:12.307Z,1021.02
2019-02-27T10:17:12.297Z,1021.11
2019-02-27T10:18:12.289Z,1021.05
2019-02-27T10:19:12.322Z,1021.08
2019-02-27T10:20:12.331Z,1021.06
2019-02-27T10:21:12.726Z,1021.04
2019-02-27T10:22:12.263Z,1021.05
2019-02-27T10:23:12.246Z,1021.04
2019-02-27T10:24:12.227Z,1021.07
2019-02-27T10:25:12.202Z,1020.99
2019-02-27T10:26:12.207Z,1020.97
2019-02-27T10:27:12.195Z,1020.99
2019-02-27T10:28:12.185Z,1020.99
2019-02-27T10:29:13.434Z,1020.94
2019-02-27T10:30:12.175Z,1020.93
2019-02-27T10:31:12.691Z,1020.92
2019-02-27T10:32:12.122Z,1020.91
2019-02-27T10:33:12.129Z,1020.90
2019-02-27T10:34:14.552Z,1020.91
2019-02-27T10:35:13.164Z,1020.90
2019-02-27T10:36:12.102Z,1020.85
2019-02-27T10:37:13.290Z,1020.83
2019-02-27T10:38:12.069Z,1020.82
2019-02-27T10:39:12.065Z,1020.78
2019-02-27T10:40:12.109Z,1020.82
2019-02-27T10:41:12.044Z,1020.72
2019-02-27T10:42:12.015Z,1020.74
2019-02-27T10:43:12.007Z,1020.72
2019-02-27T10:44:11.997Z,1020.69
2019-02-27T10:45:11.983Z,1020.72
2019-02-27T10:46:11.982Z,1020.70
2019-02-27T10:47:11.959Z,1020.69
2019-02-27T10:48:12.599Z,1020.59
2019-02-27T10:49:11.937Z,1020.68
2019-02-27T10:50:12.594Z,1020.62
2019-02-27T10:51:11.928Z,1020.62
2019-02-27T10:52:11.923Z,1020.54
2019-02-27T10:53:11.901Z,1020.56
2019-02-27T10:54:11.880Z,1020.54
2019-02-27T10:55:14.195Z,1020.51
2019-02-27T10:56:11.863Z,1020.48
2019-02-27T10:57:12.321Z,1020.49
2019-02-27T10:58:13.302Z,1020.46
2019-02-27T10:59:11.834Z,1020.43
2019-02-27T11:00:11.820Z,1020.45
2019-02-27T11:01:11.811Z,1020.50
2019-02-27T11:02:12.386Z,1020.41
2019-02-27T11:03:11.799Z,1020.35
2019-02-27T11:04:11.769Z,1020.37
2019-02-27T11:05:11.756Z,1020.34
2019-02-27T11:06:11.755Z,1020.35
2019-02-27T11:07:13.191Z,1020.41
2019-02-27T11:08:11.737Z,1020.33
2019-02-27T11:09:11.740Z,1020.44
2019-02-27T11:10:11.711Z,1020.37
2019-02-27T11:11:13.146Z,1020.33
2019-02-27T11:12:11.687Z,1020.36
2019-02-27T11:13:11.689Z,1020.33
2019-02-27T11:14:11.668Z,1020.22
2019-02-27T11:15:11.665Z,1020.23
2019-02-27T11:16:11.645Z,1020.20
2019-02-27T11:17:11.637Z,1020.23
2019-02-27T11:18:11.632Z,1020.16
2019-02-27T11:19:14.134Z,1020.23
2019-02-27T11:20:11.610Z,1020.20
2019-02-27T11:21:11.586Z,1020.21
2019-02-27T11:22:11.574Z,1020.20
2019-02-27T11:23:11.575Z,1020.20
2019-02-27T11:24:11.550Z,1020.19
2019-02-27T11:25:11.561Z,1020.18
2019-02-27T11:26:11.546Z,1020.15
2019-02-27T11:27:11.521Z,1020.14
2019-02-27T11:28:11.504Z,1020.08
2019-02-27T11:29:11.523Z,1020.13
2019-02-27T11:30:11.487Z,1020.07
2019-02-27T11:31:11.654Z,1020.06
2019-02-27T11:32:11.483Z,1020.11
2019-02-27T11:33:11.444Z,1020.05
2019-02-27T11:34:11.435Z,1020.02
2019-02-27T11:35:11.449Z,1020.07
2019-02-27T11:36:11.425Z,1020.03
2019-02-27T11:37:13.871Z,1020.05
2019-02-27T11:38:11.440Z,1019.99
2019-02-27T11:39:11.371Z,1020.02
2019-02-27T11:40:11.377Z,1019.96
2019-02-27T11:41:14.966Z,1019.96
2019-02-27T11:42:11.357Z,1019.85
2019-02-27T11:43:11.347Z,1019.83
2019-02-27T11:44:13.905Z,1019.79
2019-02-27T11:45:11.318Z,1019.79
2019-02-27T11:46:11.308Z,1019.77
2019-02-27T11:47:11.921Z,1019.77
2019-02-27T11:48:11.314Z,1019.72
2019-02-27T11:49:11.274Z,1019.71
2019-02-27T11:50:11.251Z,1019.62
2019-02-27T11:51:11.237Z,1019.60
2019-02-27T11:52:11.246Z,1019.53
2019-02-27T11:53:11.249Z,1019.51
2019-02-27T11:54:11.222Z,1019.49
2019-02-27T11:55:11.266Z,1019.49
2019-02-27T11:56:11.192Z,1019.53
2019-02-27T11:57:11.177Z,1019.45
2019-02-27T11:58:11.178Z,1019.46
2019-02-27T11:59:12.929Z,1019.44
2019-02-27T12:00:11.183Z,1019.41
2019-02-27T12:01:12.163Z,1019.46
2019-02-27T12:02:11.114Z,1019.37
2019-02-27T12:03:11.928Z,1019.30
2019-02-27T12:04:11.106Z,1019.24
2019-02-27T12:05:11.243Z,1019.28
2019-02-27T12:06:11.123Z,1019.26